sensor_id;sensor_type;location;lat;lon;timestamp;temperature;humidity
33741;DHT22;20065;48.380;10.892;2023-05-29T00:00:24;16.50;99.90
33741;DHT22;20065;48.380;10.892;2023-05-29T00:03:11;16.40;99.90
33741;DHT22;20065;48.380;10.892;2023-05-29T00:05:57;16.40;99.90
33741;DHT22;20065;48.380;10.892;2023-05-29T00:08:43;16.40;99.90
33741;DHT22;20065;48.380;10.892;2023-05-29T00:11:29;16.30;99.90
33741;DHT22;20065;48.380;10.892;2023-05-29T00:14:16;16.30;99.90
33741;DHT22;20065;48.380;10.892;2023-05-29T00:17:04;16.20;99.90
33741;DHT22;20065;48.380;10.892;2023-05-29T00:19:52;16.20;99.90
33741;DHT22;20065;48.380;10.892;2023-05-29T00:22:41;16.20;99.90
33741;DHT22;20065;48.380;10.892;2023-05-29T00:25:27;16.20;99.90
33741;DHT22;20065;48.380;10.892;2023-05-29T00:28:17;16.10;99.90
33741;DHT22;20065;48.380;10.892;2023-05-29T00:31:03;16.10;99.90
33741;DHT22;20065;48.380;10.892;2023-05-29T00:33:49;15.90;99.90
33741;DHT22;20065;48.380;10.892;2023-05-29T00:36:35;15.90;99.90
33741;DHT22;20065;48.380;10.892;2023-05-29T00:39:24;15.90;99.90
33741;DHT22;20065;48.380;10.892;2023-05-29T00:42:10;15.90;99.90
33741;DHT22;20065;48.380;10.892;2023-05-29T00:44:57;15.90;99.90
33741;DHT22;20065;48.380;10.892;2023-05-29T00:47:43;15.80;99.90
33741;DHT22;20065;48.380;10.892;2023-05-29T00:50:29;15.80;99.90
33741;DHT22;20065;48.380;10.892;2023-05-29T00:53:17;15.80;99.90
33741;DHT22;20065;48.380;10.892;2023-05-29T00:56:04;15.80;99.90
33741;DHT22;20065;48.380;10.892;2023-05-29T00:58:51;15.80;99.90
33741;DHT22;20065;48.380;10.892;2023-05-29T01:01:42;15.80;99.90
33741;DHT22;20065;48.380;10.892;2023-05-29T01:04:28;15.80;99.90
33741;DHT22;20065;48.380;10.892;2023-05-29T01:07:15;15.80;99.90
33741;DHT22;20065;48.380;10.892;2023-05-29T01:10:05;15.80;99.90
33741;DHT22;20065;48.380;10.892;2023-05-29T01:12:59;15.80;99.90
33741;DHT22;20065;48.380;10.892;2023-05-29T01:18:51;15.70;99.90
33741;DHT22;20065;48.380;10.892;2023-05-29T01:24:50;15.60;99.90
33741;DHT22;20065;48.380;10.892;2023-05-29T01:27:41;15.60;99.90
33741;DHT22;20065;48.380;10.892;2023-05-29T01:30:32;15.50;99.90
33741;DHT22;20065;48.380;10.892;2023-05-29T01:33:18;15.50;99.90
33741;DHT22;20065;48.380;10.892;2023-05-29T01:36:05;15.50;99.90
33741;DHT22;20065;48.380;10.892;2023-05-29T01:38:53;15.40;99.90
33741;DHT22;20065;48.380;10.892;2023-05-29T01:41:41;15.40;99.90
33741;DHT22;20065;48.380;10.892;2023-05-29T01:44:28;15.40;99.90
33741;DHT22;20065;48.380;10.892;2023-05-29T01:47:16;15.40;99.90
33741;DHT22;20065;48.380;10.892;2023-05-29T01:50:04;15.30;99.90
33741;DHT22;20065;48.380;10.892;2023-05-29T01:52:50;15.30;99.90
33741;DHT22;20065;48.380;10.892;2023-05-29T01:55:36;15.20;99.90
33741;DHT22;20065;48.380;10.892;2023-05-29T01:58:26;15.20;99.90
33741;DHT22;20065;48.380;10.892;2023-05-29T02:01:13;15.20;99.90
33741;DHT22;20065;48.380;10.892;2023-05-29T02:04:02;15.20;99.90
33741;DHT22;20065;48.380;10.892;2023-05-29T02:06:48;15.30;99.90
33741;DHT22;20065;48.380;10.892;2023-05-29T02:09:35;15.30;99.90
33741;DHT22;20065;48.380;10.892;2023-05-29T02:12:22;15.30;99.90
33741;DHT22;20065;48.380;10.892;2023-05-29T02:15:08;15.30;99.90
33741;DHT22;20065;48.380;10.892;2023-05-29T02:17:55;15.20;99.90
33741;DHT22;20065;48.380;10.892;2023-05-29T02:20:41;15.10;99.90
33741;DHT22;20065;48.380;10.892;2023-05-29T02:23:27;15.20;99.90
33741;DHT22;20065;48.380;10.892;2023-05-29T02:26:14;15.20;99.90
33741;DHT22;20065;48.380;10.892;2023-05-29T02:29:01;15.20;99.90
33741;DHT22;20065;48.380;10.892;2023-05-29T02:31:47;15.20;99.90
33741;DHT22;20065;48.380;10.892;2023-05-29T02:34:33;15.30;99.90
33741;DHT22;20065;48.380;10.892;2023-05-29T02:37:20;15.30;99.90
33741;DHT22;20065;48.380;10.892;2023-05-29T02:40:06;15.30;99.90
33741;DHT22;20065;48.380;10.892;2023-05-29T02:42:57;15.30;99.90
33741;DHT22;20065;48.380;10.892;2023-05-29T02:45:43;15.20;99.90
33741;DHT22;20065;48.380;10.892;2023-05-29T02:48:30;15.20;99.90
33741;DHT22;20065;48.380;10.892;2023-05-29T02:51:16;15.20;99.90
33741;DHT22;20065;48.380;10.892;2023-05-29T02:54:03;15.20;99.90
33741;DHT22;20065;48.380;10.892;2023-05-29T02:56:49;15.20;99.90
33741;DHT22;20065;48.380;10.892;2023-05-29T02:59:36;15.10;99.90
33741;DHT22;20065;48.380;10.892;2023-05-29T03:02:23;15.10;99.90
33741;DHT22;20065;48.380;10.892;2023-05-29T03:05:09;15.10;99.90
33741;DHT22;20065;48.380;10.892;2023-05-29T03:07:55;15.10;99.90
33741;DHT22;20065;48.380;10.892;2023-05-29T03:10:44;15.10;99.90
33741;DHT22;20065;48.380;10.892;2023-05-29T03:13:30;15.00;99.90
33741;DHT22;20065;48.380;10.892;2023-05-29T03:16:24;14.90;99.90
33741;DHT22;20065;48.380;10.892;2023-05-29T03:19:11;14.80;99.90
33741;DHT22;20065;48.380;10.892;2023-05-29T03:21:57;14.80;99.90
33741;DHT22;20065;48.380;10.892;2023-05-29T03:24:44;14.80;99.90
33741;DHT22;20065;48.380;10.892;2023-05-29T03:27:32;14.80;99.90
33741;DHT22;20065;48.380;10.892;2023-05-29T03:30:26;14.80;99.90
33741;DHT22;20065;48.380;10.892;2023-05-29T03:33:13;14.80;99.90
33741;DHT22;20065;48.380;10.892;2023-05-29T03:36:35;14.80;99.90
33741;DHT22;20065;48.380;10.892;2023-05-29T03:39:27;14.70;99.90
33741;DHT22;20065;48.380;10.892;2023-05-29T03:42:13;14.70;99.90
33741;DHT22;20065;48.380;10.892;2023-05-29T03:45:00;14.60;99.90
33741;DHT22;20065;48.380;10.892;2023-05-29T03:47:49;14.60;99.90
33741;DHT22;20065;48.380;10.892;2023-05-29T03:50:35;14.70;99.90
33741;DHT22;20065;48.380;10.892;2023-05-29T03:53:21;14.80;99.90
33741;DHT22;20065;48.380;10.892;2023-05-29T03:56:08;14.80;99.90
33741;DHT22;20065;48.380;10.892;2023-05-29T03:58:54;14.90;99.90
33741;DHT22;20065;48.380;10.892;2023-05-29T04:01:41;14.90;99.90
33741;DHT22;20065;48.380;10.892;2023-05-29T04:04:27;14.80;99.90
33741;DHT22;20065;48.380;10.892;2023-05-29T04:07:14;14.80;99.90
33741;DHT22;20065;48.380;10.892;2023-05-29T04:10:01;14.80;99.90
33741;DHT22;20065;48.380;10.892;2023-05-29T04:12:47;14.70;99.90
33741;DHT22;20065;48.380;10.892;2023-05-29T04:15:34;14.70;99.90
33741;DHT22;20065;48.380;10.892;2023-05-29T04:18:21;14.70;99.90
33741;DHT22;20065;48.380;10.892;2023-05-29T04:21:08;14.70;99.90
33741;DHT22;20065;48.380;10.892;2023-05-29T04:23:54;14.80;99.90
33741;DHT22;20065;48.380;10.892;2023-05-29T04:26:40;14.70;99.90
33741;DHT22;20065;48.380;10.892;2023-05-29T04:29:28;14.80;99.90
33741;DHT22;20065;48.380;10.892;2023-05-29T04:32:15;14.70;99.90
33741;DHT22;20065;48.380;10.892;2023-05-29T04:35:01;14.80;99.90
33741;DHT22;20065;48.380;10.892;2023-05-29T04:37:47;14.90;99.90
33741;DHT22;20065;48.380;10.892;2023-05-29T04:40:34;14.90;99.90
33741;DHT22;20065;48.380;10.892;2023-05-29T04:43:23;15.00;99.90
33741;DHT22;20065;48.380;10.892;2023-05-29T04:46:25;15.00;99.90
33741;DHT22;20065;48.380;10.892;2023-05-29T04:49:12;15.10;99.90
33741;DHT22;20065;48.380;10.892;2023-05-29T04:51:59;15.10;99.90
33741;DHT22;20065;48.380;10.892;2023-05-29T04:54:46;15.20;99.90
33741;DHT22;20065;48.380;10.892;2023-05-29T04:57:34;15.30;99.90
33741;DHT22;20065;48.380;10.892;2023-05-29T05:00:20;15.30;99.90
33741;DHT22;20065;48.380;10.892;2023-05-29T05:03:06;15.30;99.90
33741;DHT22;20065;48.380;10.892;2023-05-29T05:05:53;15.40;99.90
33741;DHT22;20065;48.380;10.892;2023-05-29T05:08:40;15.40;99.90
33741;DHT22;20065;48.380;10.892;2023-05-29T05:11:27;15.50;99.90
33741;DHT22;20065;48.380;10.892;2023-05-29T05:14:13;15.50;99.90
33741;DHT22;20065;48.380;10.892;2023-05-29T05:17:00;15.60;99.90
33741;DHT22;20065;48.380;10.892;2023-05-29T05:19:46;15.60;99.90
33741;DHT22;20065;48.380;10.892;2023-05-29T05:22:36;15.60;99.90
33741;DHT22;20065;48.380;10.892;2023-05-29T05:25:22;15.80;99.90
33741;DHT22;20065;48.380;10.892;2023-05-29T05:28:09;15.80;99.90
33741;DHT22;20065;48.380;10.892;2023-05-29T05:30:56;15.90;99.90
33741;DHT22;20065;48.380;10.892;2023-05-29T05:33:43;15.80;99.90
33741;DHT22;20065;48.380;10.892;2023-05-29T05:36:30;15.90;99.90
33741;DHT22;20065;48.380;10.892;2023-05-29T05:39:23;15.90;99.90
33741;DHT22;20065;48.380;10.892;2023-05-29T05:42:09;16.00;99.90
33741;DHT22;20065;48.380;10.892;2023-05-29T05:45:09;16.00;99.90
33741;DHT22;20065;48.380;10.892;2023-05-29T05:47:56;16.10;99.90
33741;DHT22;20065;48.380;10.892;2023-05-29T05:50:43;16.00;99.90
33741;DHT22;20065;48.380;10.892;2023-05-29T05:53:29;16.10;99.90
33741;DHT22;20065;48.380;10.892;2023-05-29T05:56:17;16.10;99.90
33741;DHT22;20065;48.380;10.892;2023-05-29T05:59:04;16.20;99.90
33741;DHT22;20065;48.380;10.892;2023-05-29T06:01:50;16.30;99.90
33741;DHT22;20065;48.380;10.892;2023-05-29T06:04:37;16.30;99.90
33741;DHT22;20065;48.380;10.892;2023-05-29T06:07:23;16.30;99.90
33741;DHT22;20065;48.380;10.892;2023-05-29T06:10:10;16.30;99.90
33741;DHT22;20065;48.380;10.892;2023-05-29T06:12:56;16.40;99.90
33741;DHT22;20065;48.380;10.892;2023-05-29T06:15:48;16.40;99.90
33741;DHT22;20065;48.380;10.892;2023-05-29T06:18:34;16.40;99.90
33741;DHT22;20065;48.380;10.892;2023-05-29T06:21:21;16.40;99.90
33741;DHT22;20065;48.380;10.892;2023-05-29T06:24:12;16.50;99.90
33741;DHT22;20065;48.380;10.892;2023-05-29T06:26:58;16.50;99.90
33741;DHT22;20065;48.380;10.892;2023-05-29T06:29:44;17.50;99.90
33741;DHT22;20065;48.380;10.892;2023-05-29T06:32:31;16.60;99.90
33741;DHT22;20065;48.380;10.892;2023-05-29T06:35:19;16.70;99.90
33741;DHT22;20065;48.380;10.892;2023-05-29T06:38:05;16.70;99.90
33741;DHT22;20065;48.380;10.892;2023-05-29T06:40:52;16.80;99.90
33741;DHT22;20065;48.380;10.892;2023-05-29T06:43:38;16.80;99.90
33741;DHT22;20065;48.380;10.892;2023-05-29T06:46:28;16.80;99.90
33741;DHT22;20065;48.380;10.892;2023-05-29T06:49:14;16.80;99.90
33741;DHT22;20065;48.380;10.892;2023-05-29T06:52:01;16.80;99.90
33741;DHT22;20065;48.380;10.892;2023-05-29T06:55:06;16.90;99.90
33741;DHT22;20065;48.380;10.892;2023-05-29T06:57:53;17.00;99.90
33741;DHT22;20065;48.380;10.892;2023-05-29T07:00:40;17.10;99.90
33741;DHT22;20065;48.380;10.892;2023-05-29T07:03:40;17.20;99.90
33741;DHT22;20065;48.380;10.892;2023-05-29T07:06:26;17.20;99.90
33741;DHT22;20065;48.380;10.892;2023-05-29T07:09:12;17.20;99.90
33741;DHT22;20065;48.380;10.892;2023-05-29T07:11:59;17.30;99.90
33741;DHT22;20065;48.380;10.892;2023-05-29T07:14:45;17.30;99.90
33741;DHT22;20065;48.380;10.892;2023-05-29T07:17:34;17.40;99.90
33741;DHT22;20065;48.380;10.892;2023-05-29T07:20:31;17.40;99.90
33741;DHT22;20065;48.380;10.892;2023-05-29T07:23:17;17.40;99.90
33741;DHT22;20065;48.380;10.892;2023-05-29T07:26:03;17.40;99.90
33741;DHT22;20065;48.380;10.892;2023-05-29T07:28:50;17.50;99.90
33741;DHT22;20065;48.380;10.892;2023-05-29T07:31:37;17.50;99.90
33741;DHT22;20065;48.380;10.892;2023-05-29T07:34:26;17.60;99.90
33741;DHT22;20065;48.380;10.892;2023-05-29T07:37:12;17.60;99.90
33741;DHT22;20065;48.380;10.892;2023-05-29T07:39:59;17.70;99.90
33741;DHT22;20065;48.380;10.892;2023-05-29T07:43:05;17.70;99.90
33741;DHT22;20065;48.380;10.892;2023-05-29T07:46:07;17.80;99.90
33741;DHT22;20065;48.380;10.892;2023-05-29T07:48:57;17.90;99.90
33741;DHT22;20065;48.380;10.892;2023-05-29T07:51:43;17.90;99.90
33741;DHT22;20065;48.380;10.892;2023-05-29T07:54:31;18.00;99.90
33741;DHT22;20065;48.380;10.892;2023-05-29T07:57:19;18.00;99.90
33741;DHT22;20065;48.380;10.892;2023-05-29T08:00:07;18.00;99.90
33741;DHT22;20065;48.380;10.892;2023-05-29T08:02:55;18.00;99.90
33741;DHT22;20065;48.380;10.892;2023-05-29T08:05:50;18.00;99.90
33741;DHT22;20065;48.380;10.892;2023-05-29T08:08:38;18.00;99.90
33741;DHT22;20065;48.380;10.892;2023-05-29T08:11:24;18.10;99.90
33741;DHT22;20065;48.380;10.892;2023-05-29T08:14:14;18.10;99.90
33741;DHT22;20065;48.380;10.892;2023-05-29T08:17:02;18.10;99.90
33741;DHT22;20065;48.380;10.892;2023-05-29T08:19:48;18.20;99.90
33741;DHT22;20065;48.380;10.892;2023-05-29T08:22:34;18.20;99.90
33741;DHT22;20065;48.380;10.892;2023-05-29T08:25:20;18.30;99.90
33741;DHT22;20065;48.380;10.892;2023-05-29T08:28:06;18.30;99.90
33741;DHT22;20065;48.380;10.892;2023-05-29T08:30:56;18.40;99.90
33741;DHT22;20065;48.380;10.892;2023-05-29T08:33:42;18.40;99.90
33741;DHT22;20065;48.380;10.892;2023-05-29T08:36:28;18.40;99.90
33741;DHT22;20065;48.380;10.892;2023-05-29T08:39:15;18.50;99.90
33741;DHT22;20065;48.380;10.892;2023-05-29T08:42:12;18.60;99.90
33741;DHT22;20065;48.380;10.892;2023-05-29T08:45:02;18.60;99.90
33741;DHT22;20065;48.380;10.892;2023-05-29T08:47:53;18.60;99.90
33741;DHT22;20065;48.380;10.892;2023-05-29T08:50:43;18.70;99.90
33741;DHT22;20065;48.380;10.892;2023-05-29T08:53:31;18.80;99.90
33741;DHT22;20065;48.380;10.892;2023-05-29T08:56:18;18.80;99.90
33741;DHT22;20065;48.380;10.892;2023-05-29T08:59:06;18.90;99.90
33741;DHT22;20065;48.380;10.892;2023-05-29T09:01:53;18.90;99.90
33741;DHT22;20065;48.380;10.892;2023-05-29T09:04:41;18.90;99.90
33741;DHT22;20065;48.380;10.892;2023-05-29T09:07:28;19.10;99.90
33741;DHT22;20065;48.380;10.892;2023-05-29T09:10:17;19.10;99.90
33741;DHT22;20065;48.380;10.892;2023-05-29T09:13:07;19.10;99.90
33741;DHT22;20065;48.380;10.892;2023-05-29T09:15:59;19.10;99.90
33741;DHT22;20065;48.380;10.892;2023-05-29T09:18:45;19.10;99.90
33741;DHT22;20065;48.380;10.892;2023-05-29T09:21:32;19.20;99.90
33741;DHT22;20065;48.380;10.892;2023-05-29T09:24:19;19.20;99.90
33741;DHT22;20065;48.380;10.892;2023-05-29T09:27:05;19.30;99.90
33741;DHT22;20065;48.380;10.892;2023-05-29T09:29:53;19.30;99.90
33741;DHT22;20065;48.380;10.892;2023-05-29T09:32:40;19.40;99.90
33741;DHT22;20065;48.380;10.892;2023-05-29T09:35:32;19.40;99.90
33741;DHT22;20065;48.380;10.892;2023-05-29T09:38:19;19.50;99.90
33741;DHT22;20065;48.380;10.892;2023-05-29T09:41:05;19.60;99.90
33741;DHT22;20065;48.380;10.892;2023-05-29T09:43:52;19.70;99.70
33741;DHT22;20065;48.380;10.892;2023-05-29T09:46:41;19.80;99.90
33741;DHT22;20065;48.380;10.892;2023-05-29T09:49:28;19.90;99.90
33741;DHT22;20065;48.380;10.892;2023-05-29T09:52:21;20.00;99.20
33741;DHT22;20065;48.380;10.892;2023-05-29T09:55:08;20.10;99.90
33741;DHT22;20065;48.380;10.892;2023-05-29T09:57:55;20.20;99.90
33741;DHT22;20065;48.380;10.892;2023-05-29T10:00:42;20.20;99.90
33741;DHT22;20065;48.380;10.892;2023-05-29T10:03:32;20.30;99.70
33741;DHT22;20065;48.380;10.892;2023-05-29T10:06:22;20.40;99.90
33741;DHT22;20065;48.380;10.892;2023-05-29T10:09:17;20.40;99.90
33741;DHT22;20065;48.380;10.892;2023-05-29T10:12:08;20.40;99.90
33741;DHT22;20065;48.380;10.892;2023-05-29T10:14:57;20.50;99.90
33741;DHT22;20065;48.380;10.892;2023-05-29T10:18:02;20.50;99.90
33741;DHT22;20065;48.380;10.892;2023-05-29T10:20:59;20.70;99.90
33741;DHT22;20065;48.380;10.892;2023-05-29T10:23:48;20.90;98.90
33741;DHT22;20065;48.380;10.892;2023-05-29T10:26:39;21.00;97.50
33741;DHT22;20065;48.380;10.892;2023-05-29T10:29:59;21.00;99.10
33741;DHT22;20065;48.380;10.892;2023-05-29T10:36:22;21.10;98.00
33741;DHT22;20065;48.380;10.892;2023-05-29T10:39:12;21.10;98.70
33741;DHT22;20065;48.380;10.892;2023-05-29T10:41:59;21.10;97.30
33741;DHT22;20065;48.380;10.892;2023-05-29T10:44:50;21.10;98.20
33741;DHT22;20065;48.380;10.892;2023-05-29T10:47:36;21.20;98.20
33741;DHT22;20065;48.380;10.892;2023-05-29T10:50:45;21.10;98.00
33741;DHT22;20065;48.380;10.892;2023-05-29T10:53:48;21.20;99.30
33741;DHT22;20065;48.380;10.892;2023-05-29T10:56:37;21.30;99.90
33741;DHT22;20065;48.380;10.892;2023-05-29T10:59:25;21.30;98.20
33741;DHT22;20065;48.380;10.892;2023-05-29T11:02:23;21.30;99.30
33741;DHT22;20065;48.380;10.892;2023-05-29T11:05:25;21.40;98.30
33741;DHT22;20065;48.380;10.892;2023-05-29T11:08:12;21.60;96.20
33741;DHT22;20065;48.380;10.892;2023-05-29T11:11:04;21.70;95.80
33741;DHT22;20065;48.380;10.892;2023-05-29T11:14:09;21.80;96.40
33741;DHT22;20065;48.380;10.892;2023-05-29T11:16:58;21.80;97.70
33741;DHT22;20065;48.380;10.892;2023-05-29T11:19:47;21.70;98.10
33741;DHT22;20065;48.380;10.892;2023-05-29T11:25:46;21.90;95.50
33741;DHT22;20065;48.380;10.892;2023-05-29T11:28:37;22.10;95.60
33741;DHT22;20065;48.380;10.892;2023-05-29T11:31:33;22.20;97.00
33741;DHT22;20065;48.380;10.892;2023-05-29T11:34:23;22.20;96.00
33741;DHT22;20065;48.380;10.892;2023-05-29T11:37:14;22.00;96.70
33741;DHT22;20065;48.380;10.892;2023-05-29T11:40:04;22.00;96.30
33741;DHT22;20065;48.380;10.892;2023-05-29T11:42:51;22.00;95.70
33741;DHT22;20065;48.380;10.892;2023-05-29T11:45:38;22.10;96.60
33741;DHT22;20065;48.380;10.892;2023-05-29T11:48:26;22.30;95.60
33741;DHT22;20065;48.380;10.892;2023-05-29T11:51:13;22.30;96.90
33741;DHT22;20065;48.380;10.892;2023-05-29T11:54:00;22.20;96.40
33741;DHT22;20065;48.380;10.892;2023-05-29T11:56:47;22.30;95.70
33741;DHT22;20065;48.380;10.892;2023-05-29T11:59:42;22.20;96.20
33741;DHT22;20065;48.380;10.892;2023-05-29T12:02:30;22.20;96.10
33741;DHT22;20065;48.380;10.892;2023-05-29T12:05:23;22.10;97.20
33741;DHT22;20065;48.380;10.892;2023-05-29T12:08:12;22.10;95.20
33741;DHT22;20065;48.380;10.892;2023-05-29T12:10:58;22.10;97.50
33741;DHT22;20065;48.380;10.892;2023-05-29T12:13:56;22.20;96.50
33741;DHT22;20065;48.380;10.892;2023-05-29T12:16:49;22.50;96.40
33741;DHT22;20065;48.380;10.892;2023-05-29T12:19:36;22.20;96.80
33741;DHT22;20065;48.380;10.892;2023-05-29T12:22:40;22.40;95.70
33741;DHT22;20065;48.380;10.892;2023-05-29T12:25:27;22.40;96.30
33741;DHT22;20065;48.380;10.892;2023-05-29T12:28:17;22.30;98.10
33741;DHT22;20065;48.380;10.892;2023-05-29T12:31:07;21.30;97.50
33741;DHT22;20065;48.380;10.892;2023-05-29T12:33:53;22.40;98.80
33741;DHT22;20065;48.380;10.892;2023-05-29T12:36:41;22.40;97.50
33741;DHT22;20065;48.380;10.892;2023-05-29T12:39:37;22.50;95.60
33741;DHT22;20065;48.380;10.892;2023-05-29T12:42:26;22.60;96.40
33741;DHT22;20065;48.380;10.892;2023-05-29T12:45:12;22.50;96.60
33741;DHT22;20065;48.380;10.892;2023-05-29T12:48:03;22.50;95.90
33741;DHT22;20065;48.380;10.892;2023-05-29T12:50:50;22.50;97.90
33741;DHT22;20065;48.380;10.892;2023-05-29T12:53:36;22.50;95.70
33741;DHT22;20065;48.380;10.892;2023-05-29T12:56:23;22.50;94.50
33741;DHT22;20065;48.380;10.892;2023-05-29T12:59:10;22.60;95.50
33741;DHT22;20065;48.380;10.892;2023-05-29T13:02:24;22.70;96.70
33741;DHT22;20065;48.380;10.892;2023-05-29T13:05:18;22.70;96.00
33741;DHT22;20065;48.380;10.892;2023-05-29T13:08:06;22.60;97.50
33741;DHT22;20065;48.380;10.892;2023-05-29T13:10:53;22.70;96.20
33741;DHT22;20065;48.380;10.892;2023-05-29T13:13:43;22.70;96.40
33741;DHT22;20065;48.380;10.892;2023-05-29T13:16:30;22.60;95.80
33741;DHT22;20065;48.380;10.892;2023-05-29T13:19:16;22.70;96.60
33741;DHT22;20065;48.380;10.892;2023-05-29T13:22:02;22.80;96.00
33741;DHT22;20065;48.380;10.892;2023-05-29T13:24:49;22.80;95.40
33741;DHT22;20065;48.380;10.892;2023-05-29T13:27:40;22.90;96.50
33741;DHT22;20065;48.380;10.892;2023-05-29T13:30:27;22.90;96.00
33741;DHT22;20065;48.380;10.892;2023-05-29T13:33:36;23.00;96.10
33741;DHT22;20065;48.380;10.892;2023-05-29T13:36:22;22.90;95.70
33741;DHT22;20065;48.380;10.892;2023-05-29T13:39:08;23.00;95.30
33741;DHT22;20065;48.380;10.892;2023-05-29T13:41:55;23.00;95.90
33741;DHT22;20065;48.380;10.892;2023-05-29T13:44:41;23.00;95.20
33741;DHT22;20065;48.380;10.892;2023-05-29T13:47:27;23.10;94.70
33741;DHT22;20065;48.380;10.892;2023-05-29T13:50:17;23.10;94.80
33741;DHT22;20065;48.380;10.892;2023-05-29T13:53:03;23.10;94.80
33741;DHT22;20065;48.380;10.892;2023-05-29T13:55:49;23.10;95.10
33741;DHT22;20065;48.380;10.892;2023-05-29T13:58:35;23.10;95.80
33741;DHT22;20065;48.380;10.892;2023-05-29T14:01:21;23.10;94.20
33741;DHT22;20065;48.380;10.892;2023-05-29T14:04:10;23.20;94.90
33741;DHT22;20065;48.380;10.892;2023-05-29T14:06:57;23.20;94.30
33741;DHT22;20065;48.380;10.892;2023-05-29T14:09:44;23.20;95.50
33741;DHT22;20065;48.380;10.892;2023-05-29T14:12:32;23.20;93.90
33741;DHT22;20065;48.380;10.892;2023-05-29T14:15:21;23.20;95.20
33741;DHT22;20065;48.380;10.892;2023-05-29T14:18:09;23.20;94.50
33741;DHT22;20065;48.380;10.892;2023-05-29T14:20:55;23.20;94.70
33741;DHT22;20065;48.380;10.892;2023-05-29T14:23:42;23.20;95.10
33741;DHT22;20065;48.380;10.892;2023-05-29T14:26:28;23.20;95.60
33741;DHT22;20065;48.380;10.892;2023-05-29T14:29:14;23.20;94.50
33741;DHT22;20065;48.380;10.892;2023-05-29T14:32:01;23.20;93.40
33741;DHT22;20065;48.380;10.892;2023-05-29T14:34:47;23.30;92.50
33741;DHT22;20065;48.380;10.892;2023-05-29T14:37:34;23.30;92.90
33741;DHT22;20065;48.380;10.892;2023-05-29T14:40:21;23.20;93.30
33741;DHT22;20065;48.380;10.892;2023-05-29T14:43:07;23.20;93.30
33741;DHT22;20065;48.380;10.892;2023-05-29T14:45:53;23.20;94.80
33741;DHT22;20065;48.380;10.892;2023-05-29T14:48:39;23.20;93.90
33741;DHT22;20065;48.380;10.892;2023-05-29T14:51:26;23.20;94.30
33741;DHT22;20065;48.380;10.892;2023-05-29T14:54:12;23.30;93.60
33741;DHT22;20065;48.380;10.892;2023-05-29T14:56:59;23.30;93.30
33741;DHT22;20065;48.380;10.892;2023-05-29T14:59:45;23.30;93.20
33741;DHT22;20065;48.380;10.892;2023-05-29T15:02:34;23.20;94.20
33741;DHT22;20065;48.380;10.892;2023-05-29T15:05:20;23.20;92.80
33741;DHT22;20065;48.380;10.892;2023-05-29T15:08:10;23.20;94.10
33741;DHT22;20065;48.380;10.892;2023-05-29T15:10:56;23.20;93.60
33741;DHT22;20065;48.380;10.892;2023-05-29T15:13:45;23.10;93.50
33741;DHT22;20065;48.380;10.892;2023-05-29T15:16:31;23.10;93.00
33741;DHT22;20065;48.380;10.892;2023-05-29T15:19:20;23.10;92.20
33741;DHT22;20065;48.380;10.892;2023-05-29T15:22:06;23.10;93.50
33741;DHT22;20065;48.380;10.892;2023-05-29T15:24:54;23.10;91.80
33741;DHT22;20065;48.380;10.892;2023-05-29T15:27:40;23.10;92.00
33741;DHT22;20065;48.380;10.892;2023-05-29T15:30:26;23.10;92.70
33741;DHT22;20065;48.380;10.892;2023-05-29T15:33:13;23.10;92.30
33741;DHT22;20065;48.380;10.892;2023-05-29T15:35:59;23.10;92.50
33741;DHT22;20065;48.380;10.892;2023-05-29T15:38:46;23.00;93.00
33741;DHT22;20065;48.380;10.892;2023-05-29T15:41:32;23.00;91.40
33741;DHT22;20065;48.380;10.892;2023-05-29T15:44:18;23.10;91.00
33741;DHT22;20065;48.380;10.892;2023-05-29T15:47:05;23.00;92.60
33741;DHT22;20065;48.380;10.892;2023-05-29T15:49:54;23.00;92.80
33741;DHT22;20065;48.380;10.892;2023-05-29T15:52:43;23.00;92.70
33741;DHT22;20065;48.380;10.892;2023-05-29T15:55:29;23.00;93.10
33741;DHT22;20065;48.380;10.892;2023-05-29T15:58:15;22.80;92.00
33741;DHT22;20065;48.380;10.892;2023-05-29T16:01:04;22.90;92.00
33741;DHT22;20065;48.380;10.892;2023-05-29T16:03:50;22.80;91.80
33741;DHT22;20065;48.380;10.892;2023-05-29T16:06:38;22.80;92.00
33741;DHT22;20065;48.380;10.892;2023-05-29T16:09:24;22.90;92.20
33741;DHT22;20065;48.380;10.892;2023-05-29T16:12:11;22.80;93.20
33741;DHT22;20065;48.380;10.892;2023-05-29T16:14:59;22.80;92.20
33741;DHT22;20065;48.380;10.892;2023-05-29T16:17:46;22.80;92.00
33741;DHT22;20065;48.380;10.892;2023-05-29T16:20:32;22.70;91.80
33741;DHT22;20065;48.380;10.892;2023-05-29T16:23:18;22.70;91.20
33741;DHT22;20065;48.380;10.892;2023-05-29T16:26:05;22.70;91.90
33741;DHT22;20065;48.380;10.892;2023-05-29T16:28:51;22.60;91.30
33741;DHT22;20065;48.380;10.892;2023-05-29T16:31:37;22.60;91.80
33741;DHT22;20065;48.380;10.892;2023-05-29T16:34:23;22.60;91.00
33741;DHT22;20065;48.380;10.892;2023-05-29T16:37:09;22.60;90.70
33741;DHT22;20065;48.380;10.892;2023-05-29T16:39:56;22.50;91.50
33741;DHT22;20065;48.380;10.892;2023-05-29T16:42:43;22.50;90.70
33741;DHT22;20065;48.380;10.892;2023-05-29T16:45:29;22.50;90.30
33741;DHT22;20065;48.380;10.892;2023-05-29T16:48:15;22.40;90.60
33741;DHT22;20065;48.380;10.892;2023-05-29T16:51:02;22.40;90.70
33741;DHT22;20065;48.380;10.892;2023-05-29T16:53:48;22.30;88.30
33741;DHT22;20065;48.380;10.892;2023-05-29T16:56:34;22.30;89.70
33741;DHT22;20065;48.380;10.892;2023-05-29T16:59:20;22.30;89.60
33741;DHT22;20065;48.380;10.892;2023-05-29T17:02:07;22.40;89.10
33741;DHT22;20065;48.380;10.892;2023-05-29T17:04:53;22.40;91.10
33741;DHT22;20065;48.380;10.892;2023-05-29T17:07:40;22.40;89.50
33741;DHT22;20065;48.380;10.892;2023-05-29T17:10:32;22.40;90.10
33741;DHT22;20065;48.380;10.892;2023-05-29T17:13:18;22.40;90.10
33741;DHT22;20065;48.380;10.892;2023-05-29T17:16:05;22.30;90.00
33741;DHT22;20065;48.380;10.892;2023-05-29T17:18:51;22.20;89.80
33741;DHT22;20065;48.380;10.892;2023-05-29T17:21:37;22.10;88.40
33741;DHT22;20065;48.380;10.892;2023-05-29T17:24:23;22.10;89.50
33741;DHT22;20065;48.380;10.892;2023-05-29T17:27:10;22.20;88.70
33741;DHT22;20065;48.380;10.892;2023-05-29T17:29:56;22.10;89.50
33741;DHT22;20065;48.380;10.892;2023-05-29T17:32:43;22.10;89.70
33741;DHT22;20065;48.380;10.892;2023-05-29T17:35:30;22.00;90.80
33741;DHT22;20065;48.380;10.892;2023-05-29T17:38:17;22.00;90.30